createdAt,value
2018-07-12T00:01:20.564Z,34.73
2018-07-12T00:06:23.373Z,32.37
2018-07-12T00:11:26.180Z,33.47
2018-07-12T00:16:28.992Z,33.20
2018-07-12T00:21:31.792Z,34.17
2018-07-12T00:26:34.601Z,33.23
2018-07-12T00:31:37.157Z,31.30
2018-07-12T00:36:40.015Z,32.90
2018-07-12T00:41:42.826Z,30.23
2018-07-12T00:46:45.632Z,29.27
2018-07-12T00:51:48.193Z,30.47
2018-07-12T00:56:51.005Z,29.80
2018-07-12T01:01:53.834Z,28.77
2018-07-12T01:06:56.393Z,27.77
2018-07-12T01:11:59.204Z,30.17
2018-07-12T01:17:02.009Z,31.40
2018-07-12T01:22:04.825Z,34.30
2018-07-12T01:27:07.628Z,33.77
2018-07-12T01:32:10.186Z,33.43
2018-07-12T01:37:12.996Z,34.77
2018-07-12T01:42:15.824Z,34.00
2018-07-12T01:47:18.629Z,34.07
2018-07-12T01:52:21.417Z,34.80
2018-07-12T01:57:24.226Z,32.73
2018-07-12T02:02:27.029Z,34.33
2018-07-12T02:07:29.580Z,35.40
2018-07-12T02:12:32.385Z,35.13
2018-07-12T02:17:34.965Z,37.30
2018-07-12T02:22:37.526Z,32.50
2018-07-12T02:27:40.464Z,32.63
2018-07-12T02:32:43.145Z,34.53
2018-07-12T02:37:45.957Z,32.40
2018-07-12T02:42:48.775Z,32.57
2018-07-12T02:47:51.585Z,35.67
2018-07-12T02:52:54.141Z,33.80
2018-07-12T02:57:56.996Z,32.50
2018-07-12T03:02:59.806Z,34.63
2018-07-12T03:08:02.410Z,33.90
2018-07-12T03:13:05.215Z,34.70
2018-07-12T03:18:08.049Z,36.10
2018-07-12T03:23:10.597Z,35.00
2018-07-12T03:28:13.410Z,34.40
2018-07-12T03:33:16.209Z,34.07
2018-07-12T03:38:18.767Z,34.33
2018-07-12T03:43:21.580Z,33.80
2018-07-12T03:48:24.385Z,33.83
2018-07-12T03:53:27.184Z,34.57
2018-07-12T03:58:29.722Z,32.93
2018-07-12T04:03:32.265Z,32.23
2018-07-12T04:08:35.051Z,32.70
2018-07-12T04:13:37.868Z,31.30
2018-07-12T04:18:40.655Z,32.27
2018-07-12T04:23:43.448Z,31.00
2018-07-12T04:28:46.244Z,30.37
2018-07-12T04:33:48.780Z,30.07
2018-07-12T04:38:51.581Z,30.73
2018-07-12T04:43:54.117Z,30.33
2018-07-12T04:48:56.912Z,28.00
2018-07-12T04:53:59.708Z,27.20
2018-07-12T04:59:02.500Z,26.50
2018-07-12T05:04:05.288Z,25.13
2018-07-12T05:09:09.116Z,27.00
2018-07-12T05:14:11.902Z,25.83
2018-07-12T05:19:14.432Z,25.30
2018-07-12T05:24:17.240Z,25.10
2018-07-12T05:29:20.029Z,24.20
2018-07-12T05:34:23.360Z,21.97
2018-07-12T05:39:27.129Z,20.83
2018-07-12T05:44:31.120Z,19.43
2018-07-12T05:49:35.137Z,18.67
2018-07-12T05:54:38.931Z,20.40
2018-07-12T05:59:42.692Z,20.00
2018-07-12T06:04:46.676Z,21.87
2018-07-12T06:09:50.464Z,22.00
2018-07-12T06:14:54.208Z,18.03
2018-07-12T06:19:57.994Z,19.53
2018-07-12T06:25:01.753Z,20.63
2018-07-12T06:30:05.753Z,22.27
2018-07-12T06:35:10.509Z,27.93
2018-07-12T06:40:14.256Z,28.80
2018-07-12T06:45:18.018Z,32.00
2018-07-12T06:50:21.767Z,36.10
2018-07-12T06:55:25.808Z,38.23
2018-07-12T07:00:29.810Z,42.83
2018-07-12T07:05:33.573Z,44.40
2018-07-12T07:10:37.636Z,37.20
2018-07-12T07:15:41.408Z,36.57
2018-07-12T07:20:45.417Z,34.33
2018-07-12T07:25:49.176Z,35.17
2018-07-12T07:30:52.944Z,36.90
2018-07-12T07:35:56.980Z,38.63
2018-07-12T07:41:00.741Z,36.27
2018-07-12T07:46:04.528Z,35.10
2018-07-12T07:51:09.329Z,32.50
2018-07-12T07:56:13.103Z,32.80
2018-07-12T08:01:17.097Z,33.85
2018-07-12T08:06:20.863Z,38.40
2018-07-12T08:11:24.642Z,40.80
2018-07-12T08:16:28.649Z,42.27
2018-07-12T08:21:32.644Z,41.97
2018-07-12T08:26:36.706Z,41.93
2018-07-12T08:31:40.476Z,39.43
2018-07-12T08:36:44.236Z,40.83
2018-07-12T08:41:48.000Z,39.77
2018-07-12T08:46:51.760Z,41.33
2018-07-12T08:51:55.524Z,42.17
2018-07-12T08:56:59.295Z,43.67
2018-07-12T09:02:03.107Z,41.57
2018-07-12T09:07:06.864Z,44.23
2018-07-12T09:12:10.734Z,42.53
2018-07-12T09:17:14.575Z,43.50
2018-07-12T09:22:18.343Z,44.20
2018-07-12T09:27:22.134Z,44.77
2018-07-12T09:32:25.949Z,44.37
2018-07-12T09:37:29.746Z,39.03
2018-07-12T09:42:33.748Z,29.63
2018-07-12T09:47:37.567Z,34.50
2018-07-12T09:52:41.331Z,30.30
2018-07-12T09:57:56.600Z,26.10
2018-07-12T10:03:05.824Z,22.67
2018-07-12T10:08:15.025Z,31.50
2018-07-12T10:13:24.911Z,28.77
2018-07-12T10:18:29.239Z,27.30
2018-07-12T10:23:33.035Z,18.20
2018-07-12T10:28:36.860Z,16.13
2018-07-12T10:33:40.617Z,15.37
2018-07-12T10:38:44.409Z,15.57
2018-07-12T10:43:48.175Z,17.97
2018-07-12T10:48:51.951Z,17.17
2018-07-12T10:53:55.751Z,14.53
2018-07-12T10:58:59.577Z,11.53
2018-07-12T11:04:03.556Z,12.70
2018-07-12T11:09:08.257Z,13.90
2018-07-12T11:14:11.988Z,13.03
2018-07-12T11:19:15.769Z,19.97
2018-07-12T11:24:19.768Z,22.73
2018-07-12T11:29:35.689Z,24.00
2018-07-12T11:34:39.448Z,21.20
2018-07-12T11:39:43.211Z,20.97
2018-07-12T11:44:47.399Z,12.73
2018-07-12T11:49:51.175Z,13.77
2018-07-12T11:54:55.120Z,13.63
2018-07-12T11:59:58.892Z,16.63
2018-07-12T12:05:02.745Z,14.40
2018-07-12T12:10:06.518Z,15.20
2018-07-12T12:15:12.285Z,14.60
2018-07-12T12:20:16.423Z,13.20
2018-07-12T12:25:20.454Z,12.87
2018-07-12T12:30:24.355Z,13.30
2018-07-12T12:35:28.127Z,13.57
2018-07-12T12:40:31.896Z,13.87
2018-07-12T12:45:35.659Z,12.10
2018-07-12T12:50:39.449Z,12.10
2018-07-12T12:55:43.216Z,13.07
2018-07-12T13:00:47.252Z,12.00
2018-07-12T13:05:51.175Z,12.10
2018-07-12T13:10:55.146Z,12.00
2018-07-12T13:15:58.991Z,13.27
2018-07-12T13:21:02.663Z,12.10
2018-07-12T13:26:06.486Z,13.13
2018-07-12T13:31:10.278Z,14.27
2018-07-12T13:36:14.031Z,13.43
2018-07-12T13:41:17.795Z,12.60
2018-07-12T13:46:21.561Z,13.27
2018-07-12T13:51:25.329Z,13.63
2018-07-12T13:56:29.321Z,14.07
2018-07-12T14:01:33.100Z,14.63
2018-07-12T14:06:37.112Z,14.47
2018-07-12T14:11:41.152Z,15.03
2018-07-12T14:16:44.975Z,14.77
2018-07-12T14:21:48.989Z,15.27
2018-07-12T14:26:52.761Z,13.23
2018-07-12T14:31:56.603Z,13.13
2018-07-12T14:37:00.643Z,13.80
2018-07-12T14:42:04.439Z,13.75
2018-07-12T14:47:08.283Z,13.20
2018-07-12T14:52:12.295Z,12.47
2018-07-12T14:57:16.934Z,12.17
2018-07-12T15:02:20.712Z,11.33
2018-07-12T15:07:24.716Z,11.80
2018-07-12T15:12:28.594Z,11.27
2018-07-12T15:17:32.356Z,11.53
2018-07-12T15:22:36.127Z,10.97
2018-07-12T15:27:39.911Z,11.03
2018-07-12T15:32:43.679Z,11.60
2018-07-12T15:37:47.684Z,12.40
2018-07-12T15:42:51.487Z,13.40
2018-07-12T15:47:55.260Z,14.27
2018-07-12T15:52:59.721Z,13.77
2018-07-12T15:58:03.706Z,14.20
2018-07-12T16:03:07.468Z,13.83
2018-07-12T16:08:11.248Z,14.23
2018-07-12T16:13:15.016Z,14.27
2018-07-12T16:18:19.025Z,14.70
2018-07-12T16:23:23.053Z,14.40
2018-07-12T16:28:26.842Z,13.83
2018-07-12T16:33:30.596Z,13.80
2018-07-12T16:38:34.360Z,12.40
2018-07-12T16:43:38.136Z,12.73
2018-07-12T16:48:42.021Z,14.23
2018-07-12T16:53:45.667Z,13.07
2018-07-12T16:58:49.812Z,11.93
2018-07-12T17:03:53.804Z,12.40
2018-07-12T17:08:57.816Z,12.50
2018-07-12T17:14:01.892Z,10.87
2018-07-12T17:19:05.826Z,11.00
2018-07-12T17:24:09.811Z,11.40
2018-07-12T17:29:13.607Z,11.07
2018-07-12T17:34:17.728Z,11.13
2018-07-12T17:39:21.745Z,10.50
2018-07-12T17:44:26.388Z,9.67
2018-07-12T17:49:30.492Z,9.90
2018-07-12T17:54:34.264Z,9.30
2018-07-12T17:59:38.022Z,9.33
2018-07-12T18:04:41.798Z,10.13
2018-07-12T18:09:45.861Z,9.80
2018-07-12T18:14:49.844Z,9.80
2018-07-12T18:19:53.837Z,9.60
2018-07-12T18:24:57.625Z,10.03
2018-07-12T18:30:01.647Z,10.63
2018-07-12T18:35:05.423Z,9.60
2018-07-12T18:40:09.192Z,10.30
2018-07-12T18:45:13.185Z,10.43
2018-07-12T18:50:16.956Z,10.47
2018-07-12T18:55:20.956Z,10.63
2018-07-12T19:00:24.724Z,10.90
2018-07-12T19:05:28.506Z,12.10
2018-07-12T19:10:32.271Z,13.07
2018-07-12T19:15:36.036Z,13.83
2018-07-12T19:20:39.883Z,13.87
2018-07-12T19:25:43.668Z,18.83
2018-07-12T19:30:47.431Z,16.53
2018-07-12T19:35:51.215Z,15.93
2018-07-12T19:40:55.192Z,15.63
2018-07-12T19:45:59.193Z,12.80
2018-07-12T19:51:02.952Z,13.10
2018-07-12T19:56:06.764Z,12.87
2018-07-12T20:01:10.833Z,12.93
2018-07-12T20:06:14.731Z,12.57
2018-07-12T20:11:18.720Z,12.53
2018-07-12T20:16:22.480Z,12.20
2018-07-12T20:21:26.533Z,13.27
2018-07-12T20:26:30.544Z,12.60
2018-07-12T20:31:34.576Z,12.70
2018-07-12T20:36:38.581Z,13.50
2018-07-12T20:41:42.619Z,12.50
2018-07-12T20:46:46.398Z,13.93
2018-07-12T20:51:50.180Z,13.63
2018-07-12T20:56:53.956Z,14.87
2018-07-12T21:01:57.736Z,14.77
2018-07-12T21:07:01.499Z,14.93
2018-07-12T21:12:05.552Z,15.83
2018-07-12T21:17:09.324Z,16.00
2018-07-12T21:22:13.239Z,16.90
2018-07-12T21:27:17.224Z,17.07
2018-07-12T21:32:20.994Z,17.27
2018-07-12T21:37:24.764Z,17.47
2018-07-12T21:42:28.547Z,17.00
2018-07-12T21:47:32.484Z,17.37
2018-07-12T21:52:36.477Z,17.50
2018-07-12T21:57:40.271Z,18.47
2018-07-12T22:02:44.287Z,18.47
2018-07-12T22:08:23.108Z,19.23
2018-07-12T22:13:27.612Z,18.30
2018-07-12T22:18:31.387Z,18.97
2018-07-12T22:23:35.494Z,18.13
2018-07-12T22:28:39.475Z,19.30
2018-07-12T22:33:43.264Z,20.20
2018-07-12T22:38:47.261Z,20.03
2018-07-12T22:43:51.028Z,18.73
2018-07-12T22:48:54.924Z,17.97
2018-07-12T22:53:58.568Z,17.27
2018-07-12T22:59:02.335Z,18.17
2018-07-12T23:04:06.115Z,18.27
2018-07-12T23:09:10.107Z,18.30
2018-07-12T23:14:13.931Z,18.37
2018-07-12T23:19:17.996Z,17.77
2018-07-12T23:24:21.763Z,17.95
2018-07-12T23:29:25.836Z,18.27
2018-07-12T23:34:29.832Z,17.93
2018-07-12T23:39:33.841Z,17.55
2018-07-12T23:44:37.860Z,18.03
2018-07-12T23:49:41.866Z,17.73
2018-07-12T23:54:45.892Z,17.73
2018-07-12T23:59:49.660Z,16.80
